Arlington, OR

10:05 AM PDT on August 30, 2016 (GMT -0700)
MesoWest | | Change Station

Elev 890 ft 45.72 °N, 120.18 °W | Updated 48 minutes ago

Clear
Clear
67 °F
Feels Like 67 °F
N
10
Wind Variable Wind from West
Gusts 12.0 mph

Today
High -- | Low -- °F
--% Chance of Precip.
Yesterday
High -- | Low -- °F
Precip. -- in
Pressure 29.90 in
Visibility 10.0 miles
Clouds Clear
Dew Point 52 °F
Humidity 59%
Rainfall in
Snow Depth Not available.
6:20 AM 7:41 PM
Waning Crescent, 3% visible
METAR KHRI 301653Z AUTO 25005KT 10SM CLR 22/10 A2991 RMK AO2 SLP123 T02220100
Pressure 29.90 in
Visibility 10.0 miles
Clouds Clear
Dew Point 52 °F
Humidity 59%
Rainfall in
Snow Depth Not available.
6:20 AM 7:41 PM
Waning Crescent, 3% visible
METAR KHRI 301653Z AUTO 25005KT 10SM CLR 22/10 A2991 RMK AO2 SLP123 T02220100

10-Day Weather Forecast

Almanac

Astronomy

Aug. 30, 2016 Rise Set
Actual Time
Civil Twilight
Nautical Twilight
Astronomical Twilight
Moon
Length of Visible Light
Length of Day
Tomorrow will be .
, % of the Moon is Illuminated

Today's Extremes

State Highs State Lows

Community

WunderPhotos

Upload Photos

1,935,845 photos uploaded!

WunderBlog® & News

Nearby

Air Quality

  Air Quality AQ Index Pollutant
Not available.

Snow Depth

Station Depth Elevation

Earthquake Activity

City Distance Mag. Time & Date
Minimum magnitude displayed is 2.5.

Coastal Water Temperatures

Place Temperature

Stations

Nearby Weather Stations

Station Location Temp. Windchill Dew Point Humidity Wind Precip. Elev Updated Type
                   

Watches & Warnings

There are currently no watches in effect.